Time;durP1;ratioP1;P1;durP2;ratioP2;P2;SDS_P1;SDS_P2;PMS_P1;PMS_P2;Temp;Humidity;BMP_temperature;BMP_pressure;BME280_temperature;BME280_humidity;BME280_pressure;Samples;Min_cycle;Max_cycle;Signal;HPM_P1;HPM_P2
2023/09/18 00:01:57;;;;;;;19.08;17.00;;;486.50;2380.80;;;;;;5086227;28;20362;-65
2023/09/18 00:04:24;;;;;;;20.65;18.55;;;461.70;2380.80;;;;;;5089584;28;20099;-65
2023/09/18 00:06:49;;;;;;;19.42;16.90;;;461.70;2380.80;;;;;;5088674;28;20024;-66
2023/09/18 00:09:16;;;;;;;20.48;16.95;;;461.60;2380.80;;;;;;5071616;28;20027;-65
2023/09/18 00:11:41;;;;;;;19.05;17.05;;;461.60;2380.80;;;;;;5086858;28;20103;-64
2023/09/18 00:14:10;;;;;;;19.27;16.95;;;461.50;2380.80;;;;;;5089118;28;20116;-63
2023/09/18 00:16:36;;;;;;;21.92;17.85;;;461.50;2380.80;;;;;;5088911;28;20031;-63
2023/09/18 00:19:02;;;;;;;19.65;17.00;;;461.60;2380.80;;;;;;5078162;28;20374;-62
2023/09/18 00:21:30;;;;;;;21.55;18.30;;;461.60;2380.80;;;;;;5083759;28;20040;-64
2023/09/18 00:23:57;;;;;;;23.05;17.40;;;461.60;2380.80;;;;;;5080481;28;20393;-64
2023/09/18 00:26:24;;;;;;;20.58;17.05;;;461.60;2380.80;;;;;;5088866;28;20043;-63
2023/09/18 00:28:50;;;;;;;18.58;16.58;;;461.70;2380.80;;;;;;5088988;28;20485;-64
2023/09/18 00:31:16;;;;;;;18.40;16.45;;;461.70;2380.80;;;;;;5088979;28;20020;-62
2023/09/18 00:33:41;;;;;;;19.08;16.92;;;486.40;2380.80;;;;;;5076108;28;20610;-65
2023/09/18 00:36:07;;;;;;;22.67;17.92;;;486.40;2380.80;;;;;;5075016;28;20446;-64
2023/09/18 00:38:33;;;;;;;18.75;16.58;;;486.50;2380.80;;;;;;5070090;28;20036;-65
2023/09/18 00:40:58;;;;;;;23.15;17.98;;;486.40;2380.80;;;;;;5075945;28;20090;-64
2023/09/18 00:43:24;;;;;;;19.35;16.83;;;461.70;2380.80;;;;;;5088854;28;20042;-65
2023/09/18 00:45:50;;;;;;;18.75;16.83;;;461.70;2380.80;;;;;;5088588;28;20027;-64
2023/09/18 00:48:16;;;;;;;19.98;17.85;;;461.70;2380.80;;;;;;5088616;28;20492;-64
2023/09/18 00:50:44;;;;;;;19.75;16.33;;;461.70;2380.80;;;;;;5088476;28;20030;-65
2023/09/18 00:53:12;;;;;;;22.20;16.58;;;461.70;2380.80;;;;;;5088917;28;20082;-63
2023/09/18 00:55:38;;;;;;;18.25;16.33;;;461.70;2380.80;;;;;;5088682;28;20382;-64
2023/09/18 00:58:07;;;;;;;19.27;17.25;;;461.70;2380.80;;;;;;5088495;28;20027;-64
2023/09/18 01:00:33;;;;;;;18.55;16.55;;;461.60;2380.80;;;;;;5088201;28;20032;-64
2023/09/18 01:03:01;;;;;;;22.45;19.92;;;461.50;2380.80;;;;;;5088858;28;20073;-64
2023/09/18 01:05:27;;;;;;;20.63;17.58;;;461.50;2380.80;;;;;;5088686;28;20021;-65
2023/09/18 01:07:53;;;;;;;25.27;18.60;;;461.50;2380.80;;;;;;5091595;28;20028;-64
2023/09/18 01:10:22;;;;;;;22.58;17.23;;;461.60;2380.80;;;;;;5068838;28;20038;-64
2023/09/18 01:12:56;;;;;;;23.90;19.25;;;461.50;2380.80;;;;;;5086740;28;20078;-64
2023/09/18 01:15:35;;;;;;;21.63;17.38;;;461.50;2380.80;;;;;;5092119;28;20039;-64
2023/09/18 01:18:01;;;;;;;19.23;16.58;;;461.40;2380.80;;;;;;5092277;28;20118;-64
2023/09/18 01:20:27;;;;;;;22.23;18.88;;;461.30;2380.80;;;;;;5092483;28;20032;-65
2023/09/18 01:22:53;;;;;;;20.85;16.92;;;461.30;2380.80;;;;;;5091624;28;20020;-64
2023/09/18 01:25:19;;;;;;;19.02;16.63;;;461.20;2380.80;;;;;;5092159;28;20035;-64
2023/09/18 01:27:44;;;;;;;19.00;16.80;;;461.20;2380.80;;;;;;5091630;28;20480;-63
2023/09/18 01:30:12;;;;;;;19.67;17.52;;;461.20;2380.80;;;;;;5092083;28;20028;-65
2023/09/18 01:32:39;;;;;;;19.45;17.38;;;461.20;2380.80;;;;;;5091717;28;20056;-63
2023/09/18 01:35:07;;;;;;;19.95;17.05;;;461.10;2380.80;;;;;;5091668;28;20490;-64
2023/09/18 01:37:35;;;;;;;19.27;17.13;;;461.10;2380.80;;;;;;5090925;28;20032;-64
2023/09/18 01:40:06;;;;;;;19.38;16.30;;;461.10;2380.80;;;;;;5091309;28;20494;-65
2023/09/18 01:42:33;;;;;;;21.52;17.58;;;461.10;2380.80;;;;;;5091581;28;20020;-65
2023/09/18 01:44:59;;;;;;;21.23;16.58;;;461.10;2380.80;;;;;;5091622;28;20032;-63
2023/09/18 01:47:26;;;;;;;20.67;16.15;;;461.20;2380.80;;;;;;5070706;28;20496;-64
2023/09/18 01:49:52;;;;;;;19.65;16.80;;;461.20;2380.80;;;;;;5078177;28;20020;-65
2023/09/18 01:52:18;;;;;;;20.98;18.40;;;461.20;2380.80;;;;;;5091819;28;20794;-64
2023/09/18 01:54:44;;;;;;;20.77;16.10;;;461.30;2380.80;;;;;;5091180;28;20557;-64
2023/09/18 01:57:10;;;;;;;23.95;18.55;;;461.20;2380.80;;;;;;5091430;28;20410;-65
2023/09/18 01:59:36;;;;;;;18.80;16.67;;;461.20;2380.80;;;;;;5091554;28;20035;-64
2023/09/18 02:02:06;;;;;;;22.55;18.05;;;461.10;2380.80;;;;;;5077086;28;20160;-64
2023/09/18 02:04:33;;;;;;;20.90;17.40;;;461.10;2380.80;;;;;;5091257;28;20024;-64
2023/09/18 02:06:59;;;;;;;22.05;16.63;;;461.00;2380.80;;;;;;5091472;28;20016;-64
2023/09/18 02:09:25;;;;;;;20.65;17.98;;;460.90;2380.80;;;;;;5091501;28;20020;-65
2023/09/18 02:11:51;;;;;;;25.55;16.23;;;460.90;2380.80;;;;;;5091074;28;20035;-65
2023/09/18 02:14:16;;;;;;;22.25;16.42;;;461.00;2380.80;;;;;;5091132;28;20028;-64
2023/09/18 02:16:43;;;;;;;20.63;17.65;;;461.00;2380.80;;;;;;5089711;28;20099;-63
2023/09/18 02:19:10;;;;;;;18.60;16.55;;;460.90;2380.80;;;;;;5074028;28;20379;-64
2023/09/18 02:21:36;;;;;;;19.45;17.27;;;460.90;2380.80;;;;;;5087616;28;20016;-63
2023/09/18 02:24:03;;;;;;;18.33;16.23;;;460.90;2380.80;;;;;;5090879;28;20023;-64
2023/09/18 02:26:29;;;;;;;19.42;17.08;;;460.90;2380.80;;;;;;5090624;28;20043;-64
2023/09/18 02:29:03;;;;;;;21.92;17.95;;;460.80;2380.80;;;;;;5090995;28;20028;-63
2023/09/18 02:31:29;;;;;;;20.08;16.58;;;460.90;2380.80;;;;;;5090235;28;20474;-64
2023/09/18 02:33:55;;;;;;;19.00;16.15;;;460.80;2380.80;;;;;;5079012;28;20120;-63
2023/09/18 02:36:20;;;;;;;18.95;16.13;;;460.80;2380.80;;;;;;5089017;28;20027;-63
2023/09/18 02:38:46;;;;;;;23.20;16.88;;;460.80;2380.80;;;;;;5090581;28;20140;-63
2023/09/18 02:41:12;;;;;;;20.20;17.40;;;460.80;2380.80;;;;;;5090483;28;20036;-64
2023/09/18 02:43:38;;;;;;;20.33;18.02;;;460.80;2380.80;;;;;;5090816;28;20026;-64
2023/09/18 02:46:07;;;;;;;22.42;17.58;;;436.10;2355.20;;;;;;5090089;28;20016;-63
2023/09/18 02:48:33;;;;;;;20.33;17.67;;;436.10;2355.20;;;;;;5071994;28;20367;-65
2023/09/18 02:51:00;;;;;;;22.52;17.60;;;460.80;2380.80;;;;;;5082823;28;20016;-64
2023/09/18 02:53:25;;;;;;;21.70;18.13;;;436.10;2355.20;;;;;;5090568;28;20106;-65
2023/09/18 02:55:53;;;;;;;19.98;16.25;;;460.80;2380.80;;;;;;5090205;28;20028;-64
2023/09/18 02:58:19;;;;;;;20.77;18.45;;;460.80;2380.80;;;;;;5090494;28;20388;-65
2023/09/18 03:00:47;;;;;;;18.80;16.27;;;436.10;2355.20;;;;;;5090810;28;20433;-65
2023/09/18 03:03:14;;;;;;;20.67;16.75;;;436.10;2355.20;;;;;;5089743;28;20040;-64
2023/09/18 03:05:40;;;;;;;21.08;16.73;;;436.00;2355.20;;;;;;5090177;28;20440;-64
2023/09/18 03:08:07;;;;;;;20.08;16.55;;;436.10;2355.20;;;;;;5087041;28;20040;-63
2023/09/18 03:10:34;;;;;;;21.35;17.10;;;436.00;2355.20;;;;;;5079777;28;20035;-66
2023/09/18 03:13:00;;;;;;;20.45;16.80;;;460.80;2380.80;;;;;;5090114;28;20043;-64
2023/09/18 03:15:26;;;;;;;20.50;16.63;;;460.80;2380.80;;;;;;5090281;28;20044;-65
2023/09/18 03:17:52;;;;;;;20.85;16.48;;;460.80;2380.80;;;;;;5089908;28;20068;-65
2023/09/18 03:20:17;;;;;;;18.38;15.88;;;460.80;2380.80;;;;;;5069551;28;20021;-63
2023/09/18 03:22:43;;;;;;;19.52;15.90;;;460.90;2380.80;;;;;;5069054;28;20103;-64
2023/09/18 03:25:09;;;;;;;18.65;16.15;;;461.00;2380.80;;;;;;5090165;28;20024;-63
2023/09/18 03:27:35;;;;;;;20.35;16.58;;;460.90;2380.80;;;;;;5089834;28;20400;-64
2023/09/18 03:30:01;;;;;;;21.10;17.23;;;460.90;2380.80;;;;;;5089182;28;20028;-64
2023/09/18 03:32:27;;;;;;;17.55;15.30;;;460.90;2380.80;;;;;;5086952;28;20133;-63
2023/09/18 03:34:53;;;;;;;20.60;15.90;;;460.90;2380.80;;;;;;5070238;28;20065;-64
2023/09/18 03:37:19;;;;;;;17.85;15.45;;;460.90;2380.80;;;;;;5085784;28;20031;-64
2023/09/18 03:39:45;;;;;;;17.83;15.93;;;460.90;2380.80;;;;;;5089494;28;20539;-63
2023/09/18 03:42:11;;;;;;;16.85;15.10;;;460.90;2380.80;;;;;;5089144;28;20032;-64
2023/09/18 03:44:37;;;;;;;20.33;15.55;;;460.80;2380.80;;;;;;5089568;28;20052;-65
2023/09/18 03:47:03;;;;;;;20.83;16.00;;;460.80;2380.80;;;;;;5088964;28;20028;-64
2023/09/18 03:49:29;;;;;;;19.48;17.38;;;460.80;2380.80;;;;;;5089693;28;20047;-63
2023/09/18 03:51:55;;;;;;;22.05;17.17;;;436.10;2355.20;;;;;;5089071;28;20056;-65
2023/09/18 03:54:21;;;;;;;20.98;16.23;;;436.10;2355.20;;;;;;5089648;28;20058;-64
2023/09/18 03:56:46;;;;;;;19.42;16.50;;;436.10;2355.20;;;;;;5089472;28;20023;-64
2023/09/18 03:59:13;;;;;;;21.17;16.60;;;436.00;2355.20;;;;;;5089116;28;20074;-63
2023/09/18 04:01:39;;;;;;;21.90;17.65;;;436.10;2355.20;;;;;;5089247;28;20024;-63
2023/09/18 04:04:05;;;;;;;20.00;17.40;;;461.00;2380.80;;;;;;5089287;28;20081;-63
2023/09/18 04:06:42;;;;;;;17.83;15.90;;;436.00;2355.20;;;;;;5089222;28;20591;-63
2023/09/18 04:09:08;;;;;;;25.73;18.33;;;436.00;2355.20;;;;;;5089368;28;20028;-65
2023/09/18 04:11:34;;;;;;;21.75;17.65;;;436.10;2355.20;;;;;;5060294;28;20032;-63
2023/09/18 04:14:03;;;;;;;20.02;17.83;;;436.00;2355.20;;;;;;5079612;28;20227;-62
2023/09/18 04:16:30;;;;;;;22.60;17.77;;;436.00;2355.20;;;;;;5088989;28;20027;-64
2023/09/18 04:18:56;;;;;;;22.88;17.90;;;435.90;2355.20;;;;;;5089542;28;20024;-64
2023/09/18 04:21:23;;;;;;;19.77;17.67;;;435.90;2355.20;;;;;;5085083;28;20116;-64
2023/09/18 04:23:55;;;;;;;18.98;16.60;;;436.00;2355.20;;;;;;5079583;28;20429;-64
2023/09/18 04:26:21;;;;;;;20.00;15.52;;;436.00;2355.20;;;;;;5086714;28;20308;-64
2023/09/18 04:28:47;;;;;;;21.15;18.55;;;435.90;2355.20;;;;;;5077920;28;20478;-63
2023/09/18 04:31:13;;;;;;;22.10;18.17;;;435.90;2355.20;;;;;;5086959;28;20113;-63
2023/09/18 04:33:39;;;;;;;20.20;17.52;;;435.90;2355.20;;;;;;5088858;28;20482;-62
2023/09/18 04:36:05;;;;;;;21.75;16.83;;;436.00;2355.20;;;;;;5088827;28;20676;-63
2023/09/18 04:38:30;;;;;;;19.20;17.25;;;436.10;2355.20;;;;;;5088604;28;20020;-63
2023/09/18 04:41:00;;;;;;;20.75;17.63;;;436.10;2355.20;;;;;;5071722;28;20119;-63
2023/09/18 04:43:26;;;;;;;22.52;16.88;;;436.10;2355.20;;;;;;5074799;28;20115;-63
2023/09/18 04:45:51;;;;;;;23.00;17.05;;;460.80;2380.80;;;;;;5090342;28;20420;-65
2023/09/18 04:48:17;;;;;;;20.80;16.50;;;460.90;2380.80;;;;;;5082008;28;20052;-63
2023/09/18 04:50:46;;;;;;;19.45;15.70;;;461.00;2380.80;;;;;;5089425;28;20520;-63
2023/09/18 04:53:12;;;;;;;17.08;14.35;;;461.10;2380.80;;;;;;5092934;28;20028;-63
2023/09/18 04:55:38;;;;;;;21.25;17.30;;;461.10;2380.80;;;;;;5092326;28;20039;-64
2023/09/18 04:58:05;;;;;;;20.10;16.40;;;461.10;2380.80;;;;;;5092667;28;20032;-63
2023/09/18 05:00:31;;;;;;;19.92;16.92;;;461.20;2380.80;;;;;;5087466;28;20093;-64
2023/09/18 05:03:02;;;;;;;18.98;15.77;;;461.30;2380.80;;;;;;5072681;28;20425;-62
2023/09/18 05:05:29;;;;;;;21.90;15.90;;;461.30;2380.80;;;;;;5091524;28;20562;-63
2023/09/18 05:07:55;;;;;;;17.50;15.63;;;461.30;2380.80;;;;;;5092968;28;20036;-63
2023/09/18 05:10:20;;;;;;;18.70;15.18;;;461.40;2380.80;;;;;;5091897;28;20536;-63
2023/09/18 05:12:46;;;;;;;20.70;16.80;;;461.50;2380.80;;;;;;5074520;28;20461;-63
2023/09/18 05:15:15;;;;;;;28.50;16.83;;;461.60;2380.80;;;;;;5082203;28;20546;-63
2023/09/18 05:17:44;;;;;;;16.70;14.98;;;461.70;2380.80;;;;;;5091846;28;20020;-63
2023/09/18 05:20:15;;;;;;;21.52;15.85;;;461.70;2380.80;;;;;;5091896;28;20481;-63
2023/09/18 05:22:42;;;;;;;17.30;15.40;;;486.50;2380.80;;;;;;5091967;28;20069;-63
2023/09/18 05:25:09;;;;;;;18.60;16.52;;;486.50;2380.80;;;;;;5065592;28;20016;-63
2023/09/18 05:27:43;;;;;;;18.98;16.10;;;486.50;2380.80;;;;;;5092595;28;20015;-63
2023/09/18 05:30:15;;;;;;;22.67;16.38;;;486.60;2380.80;;;;;;5092153;28;20058;-64
2023/09/18 05:32:43;;;;;;;17.63;15.82;;;486.80;2380.80;;;;;;5091809;28;20409;-62
2023/09/18 05:35:10;;;;;;;17.83;14.85;;;486.90;2380.80;;;;;;5092479;28;20032;-63
2023/09/18 05:37:40;;;;;;;19.75;16.13;;;487.10;2380.80;;;;;;5091513;28;20024;-63
2023/09/18 05:40:10;;;;;;;19.50;17.45;;;487.20;2380.80;;;;;;5091912;28;20055;-66
2023/09/18 05:42:37;;;;;;;19.83;15.75;;;487.20;2380.80;;;;;;5091897;28;20024;-66
2023/09/18 05:45:04;;;;;;;20.92;16.15;;;487.30;2380.80;;;;;;5091759;28;20020;-63
2023/09/18 05:47:33;;;;;;;18.45;16.42;;;512.00;2380.80;;;;;;5068628;28;20020;-63
2023/09/18 05:49:59;;;;;;;18.05;15.32;;;512.10;2380.80;;;;;;5082313;28;20122;-62
2023/09/18 05:52:25;;;;;;;20.08;16.00;;;512.30;2380.80;;;;;;5070906;28;20099;-62
2023/09/18 05:54:51;;;;;;;18.63;16.25;;;512.60;2380.80;;;;;;5089413;28;20028;-65
2023/09/18 05:57:18;;;;;;;22.92;17.48;;;512.90;2380.80;;;;;;5091833;28;20020;-64
2023/09/18 05:59:45;;;;;;;22.05;17.67;;;538.50;2406.40;;;;;;5091181;28;20031;-64
2023/09/18 06:02:11;;;;;;;17.95;16.05;;;;;;;;;;5075904;28;20035;-65
2023/09/18 06:04:36;;;;;;;19.95;17.85;;;666.10;2432.00;;;;;;5092062;28;20030;-65
2023/09/18 06:07:05;;;;;;;20.23;18.23;;;691.40;2432.00;;;;;;5091649;28;20020;-65
2023/09/18 06:09:31;;;;;;;19.48;17.55;;;742.90;2355.20;;;;;;5091441;28;20067;-63
2023/09/18 06:11:57;;;;;;;22.60;20.48;;;768.50;2150.40;;;;;;5077099;28;20060;-64
2023/09/18 06:14:23;;;;;;;26.05;21.80;;;793.60;2124.80;;;;;;5084062;28;20029;-65
2023/09/18 06:16:48;;;;;;;22.67;20.23;;;819.60;1996.80;;;;;;5084912;28;20020;-62
2023/09/18 06:19:17;;;;;;;21.35;19.15;;;845.10;1894.40;;;;;;5085329;28;20429;-62
2023/09/18 06:21:43;;;;;;;21.00;18.95;;;844.90;1868.80;;;;;;5074319;28;20024;-67
2023/09/18 06:24:09;;;;;;;23.25;20.83;;;870.80;1792.00;;;;;;5091031;28;20024;-62
2023/09/18 06:26:35;;;;;;;25.55;23.05;;;845.70;1766.40;;;;;;5091128;28;20080;-64
2023/09/18 06:29:02;;;;;;;26.05;23.85;;;870.70;1766.40;;;;;;5090995;28;20020;-61
2023/09/18 06:31:28;;;;;;;23.88;21.88;;;896.70;1664.00;;;;;;5090477;28;20020;-64
2023/09/18 06:33:54;;;;;;;27.25;24.55;;;870.90;1715.20;;;;;;5090859;28;20039;-64
2023/09/18 06:36:19;;;;;;;25.23;22.92;;;896.50;1638.40;;;;;;5090496;28;20036;-63
2023/09/18 06:38:46;;;;;;;22.45;20.40;;;922.00;1612.80;;;;;;5090748;28;20077;-61
2023/09/18 06:41:12;;;;;;;23.40;21.23;;;871.30;1664.00;;;;;;5090800;28;20355;-63
2023/09/18 06:43:37;;;;;;;24.65;22.45;;;896.70;1612.80;;;;;;5090368;28;20031;-62
2023/09/18 06:46:03;;;;;;;23.48;21.00;;;921.80;1587.20;;;;;;5089961;28;20035;-63
2023/09/18 06:48:32;;;;;;;22.70;20.42;;;896.40;1612.80;;;;;;5090745;28;20012;-63
2023/09/18 06:51:01;;;;;;;24.33;22.02;;;921.70;1587.20;;;;;;5090611;28;20027;-63
2023/09/18 06:53:29;;;;;;;25.48;23.40;;;921.80;1587.20;;;;;;5076506;28;20032;-65
2023/09/18 06:55:55;;;;;;;25.27;22.85;;;972.90;1536.00;;;;;;5088794;28;20036;-65
2023/09/18 06:58:21;;;;;;;24.30;22.10;;;948.10;1484.80;;;;;;5069104;28;20021;-65
2023/09/18 07:00:47;;;;;;;24.92;22.67;;;947.80;1510.40;;;;;;5074163;28;20039;-64
2023/09/18 07:03:13;;;;;;;24.65;22.35;;;947.70;1536.00;;;;;;5085158;28;20047;-64
2023/09/18 07:05:40;;;;;;;25.83;23.45;;;948.10;1484.80;;;;;;5080568;28;20385;-67
2023/09/18 07:08:11;;;;;;;23.92;21.52;;;922.50;1561.60;;;;;;5076009;28;20043;-63
2023/09/18 07:10:37;;;;;;;22.05;19.85;;;896.90;1587.20;;;;;;5072887;28;20082;-65
2023/09/18 07:13:03;;;;;;;22.38;19.98;;;921.80;1587.20;;;;;;5081540;28;20035;-65
2023/09/18 07:15:29;;;;;;;21.08;19.02;;;947.90;1484.80;;;;;;5089810;28;20382;-66
2023/09/18 07:17:55;;;;;;;21.15;19.08;;;948.10;1484.80;;;;;;5090214;28;20082;-65
2023/09/18 07:20:22;;;;;;;23.88;21.42;;;947.60;1510.40;;;;;;5076543;28;20059;-62
2023/09/18 07:22:48;;;;;;;28.73;25.83;;;947.30;1536.00;;;;;;5090642;28;20024;-62
2023/09/18 07:25:15;;;;;;;27.92;25.05;;;922.00;1561.60;;;;;;5076007;28;21158;-62
2023/09/18 07:27:44;;;;;;;35.15;31.30;;;896.10;1612.80;;;;;;5071364;28;20028;-62
2023/09/18 07:30:19;;;;;;;31.10;27.83;;;947.20;1536.00;;;;;;5070015;28;20082;-62
2023/09/18 07:32:45;;;;;;;23.98;21.58;;;948.10;1484.80;;;;;;5076154;28;20098;-61
2023/09/18 07:35:13;;;;;;;48.45;44.92;;;948.00;1510.40;;;;;;5082985;28;20036;-64
2023/09/18 07:37:39;;;;;;;25.30;23.33;;;998.80;1459.20;;;;;;5089559;28;20103;-62
2023/09/18 07:40:07;;;;;;;23.98;20.73;;;973.70;1459.20;;;;;;5087810;28;20123;-68
2023/09/18 07:42:33;;;;;;;23.15;20.70;;;973.60;1459.20;;;;;;5089634;28;20024;-62
2023/09/18 07:44:59;;;;;;;45.88;41.47;;;973.70;1459.20;;;;;;5078436;28;20056;-62
2023/09/18 07:47:25;;;;;;;27.17;21.75;;;947.30;1536.00;;;;;;5079075;28;20052;-63
2023/09/18 07:49:51;;;;;;;25.77;22.83;;;973.30;1484.80;;;;;;5083590;28;20057;-62
2023/09/18 07:52:17;;;;;;;22.90;20.45;;;948.10;1484.80;;;;;;5075371;28;20036;-61
2023/09/18 07:54:44;;;;;;;20.95;18.95;;;973.10;1510.40;;;;;;5056741;28;20044;-63
2023/09/18 07:57:09;;;;;;;20.35;18.40;;;947.70;1536.00;;;;;;5069272;28;20352;-61
2023/09/18 07:59:42;;;;;;;20.85;19.00;;;948.10;1510.40;;;;;;5076607;28;20126;-63
2023/09/18 08:02:09;;;;;;;18.92;17.15;;;972.90;1510.40;;;;;;5069795;28;20106;-64
2023/09/18 08:04:35;;;;;;;20.13;18.40;;;998.40;1484.80;;;;;;5058235;28;20493;-64
2023/09/18 08:07:01;;;;;;;19.05;16.88;;;973.10;1510.40;;;;;;5068858;28;20021;-64
2023/09/18 08:09:29;;;;;;;19.48;18.08;;;998.80;1459.20;;;;;;5068821;28;20371;-64
2023/09/18 08:11:55;;;;;;;19.42;17.73;;;947.80;1510.40;;;;;;5085485;28;20020;-63
2023/09/18 08:14:22;;;;;;;19.42;17.58;;;948.10;1484.80;;;;;;5086600;28;20508;-64
2023/09/18 08:16:47;;;;;;;17.95;16.52;;;999.10;1433.60;;;;;;5077024;28;20025;-64
2023/09/18 08:19:16;;;;;;;18.80;17.40;;;973.70;1459.20;;;;;;5086532;28;20116;-63
2023/09/18 08:21:42;;;;;;;18.35;16.45;;;1024.20;1408.00;;;;;;5061600;28;20035;-64
2023/09/18 08:24:08;;;;;;;19.13;17.63;;;1024.70;1382.40;;;;;;5089036;28;20378;-62
2023/09/18 08:26:34;;;;;;;19.08;17.35;;;1049.70;1408.00;;;;;;5088893;28;20440;-62
2023/09/18 08:29:00;;;;;;;17.35;16.05;;;1024.70;1382.40;;;;;;5074672;28;20017;-64
2023/09/18 08:31:27;;;;;;;17.92;16.40;;;1049.60;1408.00;;;;;;5066634;28;20060;-64
2023/09/18 08:33:53;;;;;;;17.65;16.25;;;1024.90;1382.40;;;;;;5082673;28;20048;-65
2023/09/18 08:36:18;;;;;;;16.60;15.07;;;999.10;1433.60;;;;;;5089288;28;20372;-64
2023/09/18 08:38:46;;;;;;;15.85;14.40;;;999.30;1408.00;;;;;;5085315;28;20502;-62
2023/09/18 08:41:13;;;;;;;16.75;15.38;;;998.70;1433.60;;;;;;5067166;28;20103;-64
2023/09/18 08:43:42;;;;;;;17.92;16.30;;;998.40;1459.20;;;;;;5082020;28;20444;-63
2023/09/18 08:46:09;;;;;;;16.50;15.10;;;972.80;1510.40;;;;;;5089391;28;20047;-63
2023/09/18 08:48:35;;;;;;;15.00;13.80;;;973.10;1459.20;;;;;;5088334;28;20363;-64
2023/09/18 08:51:05;;;;;;;16.42;14.82;;;973.60;1459.20;;;;;;5089101;28;20065;-63
2023/09/18 08:53:35;;;;;;;16.60;15.20;;;947.40;1484.80;;;;;;5088713;28;20023;-63
2023/09/18 08:56:02;;;;;;;14.93;13.63;;;921.60;1561.60;;;;;;5088859;28;20024;-64
2023/09/18 08:58:31;;;;;;;15.60;14.10;;;871.30;1612.80;;;;;;5088696;28;20020;-63
2023/09/18 09:00:59;;;;;;;14.23;12.00;;;;;;;;;;5089100;28;20062;-62
2023/09/18 09:03:27;;;;;;;14.25;12.73;;;;;;;;;;5084419;28;20028;-62
2023/09/18 09:05:52;;;;;;;13.98;12.48;;;845.50;1689.60;;;;;;5089342;28;20024;-62
2023/09/18 09:08:18;;;;;;;17.08;13.00;;;;;;;;;;5088789;28;20024;-62
2023/09/18 09:10:44;;;;;;;14.80;13.30;;;;;;;;;;5088680;28;20032;-62
2023/09/18 09:13:11;;;;;;;14.93;13.43;;;;;;;;;;5069622;28;20048;-62
2023/09/18 09:15:47;;;;;;;15.27;13.68;;;;;;;;;;5070948;28;20039;-62
2023/09/18 09:18:17;;;;;;;14.65;13.07;;;;;;;;;;5081465;28;20032;-62
2023/09/18 09:20:59;;;;;;;15.52;13.57;;;;;;;;;;5080712;28;20031;-63
2023/09/18 09:23:26;;;;;;;14.32;12.40;;;;;;;;;;5085306;28;20403;-61
2023/09/18 09:25:52;;;;;;;14.20;12.35;;;;;;;;;;5081771;28;20020;-63
2023/09/18 09:28:29;;;;;;;13.27;11.98;;;;;;;;;;5070894;28;20029;-62
2023/09/18 09:31:01;;;;;;;13.50;12.07;;;;;;;;;;5061471;28;20078;-61
2023/09/18 09:33:27;;;;;;;12.60;11.13;;;;;;;;;;5072546;28;20478;-62
2023/09/18 09:35:53;;;;;;;29.48;13.60;;;;;;;;;;5072583;28;20033;-62
2023/09/18 09:38:21;;;;;;;12.10;10.52;;;;;;;;;;5080574;28;20047;-62
2023/09/18 09:40:47;;;;;;;13.05;11.30;;;;;;;;;;5086427;28;20052;-62
2023/09/18 09:43:14;;;;;;;12.70;10.70;;;;;;;;;;5071154;28;20029;-61
2023/09/18 09:45:41;;;;;;;12.90;11.50;;;;;;;;;;5071832;28;20103;-62
2023/09/18 09:48:08;;;;;;;12.40;11.20;;;;;;;;;;5058731;28;20028;-62
2023/09/18 09:50:48;;;;;;;15.80;11.63;;;768.90;1792.00;;;;;;5070759;28;20394;-61
2023/09/18 09:53:14;;;;;;;16.83;12.35;;;;;;;;;;5064270;28;20562;-62
2023/09/18 09:55:41;;;;;;;12.65;11.38;;;;;;;;;;5071710;28;20443;-61
2023/09/18 09:58:10;;;;;;;12.95;10.88;;;;;;;;;;5071287;28;20029;-61
2023/09/18 10:00:50;;;;;;;13.13;11.73;;;;;;;;;;5072334;28;20387;-64
2023/09/18 10:03:17;;;;;;;12.23;10.93;;;;;;;;;;5059297;28;20037;-61
2023/09/18 10:05:44;;;;;;;15.15;11.93;;;;;;;;;;5070648;28;20055;-62
2023/09/18 10:08:12;;;;;;;16.17;11.02;;;;;;;;;;5073921;28;20021;-62
2023/09/18 10:10:48;;;;;;;11.18;9.90;;;;;;;;;;5075551;28;20111;-61
2023/09/18 10:13:19;;;;;;;15.65;10.85;;;;;;;;;;5070614;28;20016;-62
2023/09/18 10:15:46;;;;;;;12.80;10.45;;;;;;;;;;5074447;28;20036;-63
2023/09/18 10:18:17;;;;;;;12.93;11.00;;;;;;;;;;5081853;28;20031;-63
2023/09/18 10:20:45;;;;;;;13.05;11.07;;;768.60;1817.60;;;;;;5071721;28;20028;-61
2023/09/18 10:23:23;;;;;;;17.38;12.55;;;768.30;1817.60;;;;;;5070952;28;20020;-62
2023/09/18 10:25:54;;;;;;;13.18;11.52;;;743.30;1843.20;;;;;;5067674;28;20028;-61
2023/09/18 10:28:22;;;;;;;18.05;11.05;;;768.00;1843.20;;;;;;5070507;28;20059;-62
2023/09/18 10:30:50;;;;;;;17.10;11.38;;;768.00;1843.20;;;;;;5069648;28;20029;-61
2023/09/18 10:33:17;;;;;;;11.90;10.27;;;768.20;1843.20;;;;;;5070715;28;20360;-61
2023/09/18 10:35:46;;;;;;;11.95;10.75;;;768.10;1843.20;;;;;;5068656;28;20104;-64
2023/09/18 10:38:14;;;;;;;13.98;10.70;;;743.30;1843.20;;;;;;5069586;28;20048;-62
2023/09/18 10:40:41;;;;;;;13.10;10.38;;;743.30;1843.20;;;;;;5084327;28;20054;-62
2023/09/18 10:43:09;;;;;;;11.20;10.07;;;768.20;1817.60;;;;;;5072771;28;20055;-61
2023/09/18 10:45:36;;;;;;;10.32;9.40;;;768.20;1766.40;;;;;;5078369;28;20029;-62
2023/09/18 10:48:03;;;;;;;10.73;8.80;;;768.10;1792.00;;;;;;5071777;28;20024;-62
2023/09/18 10:50:29;;;;;;;9.68;8.68;;;768.30;1766.40;;;;;;5070657;28;20115;-61
2023/09/18 10:52:58;;;;;;;10.70;9.63;;;768.40;1740.80;;;;;;5068861;28;20031;-62
2023/09/18 10:55:26;;;;;;;12.68;10.77;;;768.30;1766.40;;;;;;5083173;28;20031;-61
2023/09/18 10:57:54;;;;;;;11.20;9.95;;;768.50;1740.80;;;;;;5066625;28;20020;-62
2023/09/18 11:00:25;;;;;;;10.25;9.25;;;768.50;1766.40;;;;;;5081138;28;20031;-61
2023/09/18 11:03:08;;;;;;;14.73;9.00;;;768.30;1740.80;;;;;;5055810;28;20036;-62
2023/09/18 11:05:34;;;;;;;13.65;9.55;;;768.50;1740.80;;;;;;5068050;28;20478;-62
2023/09/18 11:08:34;;;;;;;11.25;10.15;;;768.50;1740.80;;;;;;5076850;28;20077;-63
2023/09/18 11:11:04;;;;;;;11.00;9.90;;;768.60;1740.80;;;;;;5007722;28;20050;-64
2023/09/18 11:13:37;;;;;;;11.35;10.13;;;768.60;1740.80;;;;;;5008228;28;20546;-62
2023/09/18 11:16:14;;;;;;;11.90;8.43;;;768.60;1715.20;;;;;;5005036;28;20069;-62
2023/09/18 11:18:40;;;;;;;10.27;9.35;;;768.30;1715.20;;;;;;5002606;28;20034;-62
2023/09/18 11:21:10;;;;;;;10.50;8.90;;;768.60;1715.20;;;;;;5006277;28;20022;-61
2023/09/18 11:23:38;;;;;;;11.07;9.35;;;768.90;1689.60;;;;;;5006434;28;20443;-61
2023/09/18 11:26:06;;;;;;;11.98;8.85;;;768.80;1715.20;;;;;;5005401;28;20041;-62
2023/09/18 11:28:32;;;;;;;10.00;9.00;;;768.60;1715.20;;;;;;5005202;28;20041;-61
2023/09/18 11:31:00;;;;;;;12.70;8.80;;;768.90;1689.60;;;;;;5005878;28;20104;-64
2023/09/18 11:33:35;;;;;;;17.45;9.07;;;768.80;1689.60;;;;;;4986418;28;20732;-61
2023/09/18 11:36:29;;;;;;;11.00;9.43;;;768.80;1689.60;;;;;;5005238;28;20053;-62
2023/09/18 11:38:56;;;;;;;12.27;9.40;;;793.70;1715.20;;;;;;5003451;28;20041;-62
2023/09/18 11:41:29;;;;;;;10.40;9.27;;;793.70;1715.20;;;;;;5005428;28;20129;-61
2023/09/18 11:44:19;;;;;;;10.98;8.73;;;768.80;1715.20;;;;;;5005718;28;20018;-62
2023/09/18 11:46:53;;;;;;;10.32;9.18;;;793.70;1715.20;;;;;;5007652;28;20113;-62
2023/09/18 11:49:27;;;;;;;13.10;9.35;;;793.60;1740.80;;;;;;5062676;28;20055;-62
2023/09/18 11:51:53;;;;;;;;;;;768.90;1689.60;;;;;;5085947;28;20484;-62
2023/09/18 11:54:20;;;;;;;10.45;9.38;;;793.60;1715.20;;;;;;5067556;28;20409;-62
2023/09/18 11:56:47;;;;;;;13.05;8.77;;;768.90;1689.60;;;;;;5069839;28;20090;-62
2023/09/18 11:59:13;;;;;;;11.65;9.25;;;768.90;1715.20;;;;;;5070241;28;20083;-62
2023/09/18 12:01:46;;;;;;;13.13;9.48;;;768.90;1715.20;;;;;;5063214;28;20020;-62
2023/09/18 12:04:12;;;;;;;10.63;9.52;;;768.60;1715.20;;;;;;5085463;28;20525;-62
2023/09/18 12:06:41;;;;;;;14.55;9.52;;;768.90;1715.20;;;;;;5088066;28;20120;-62
2023/09/18 12:09:08;;;;;;;10.45;9.35;;;793.70;1715.20;;;;;;5086833;28;20030;-62
2023/09/18 12:11:35;;;;;;;11.07;9.98;;;793.70;1715.20;;;;;;5087805;28;20127;-62
2023/09/18 12:14:05;;;;;;;11.77;9.43;;;793.70;1715.20;;;;;;5086976;28;20693;-62
2023/09/18 12:16:31;;;;;;;10.38;9.38;;;768.80;1715.20;;;;;;5068197;28;20028;-62